createdAt,value
2022-08-03T00:00:29.703Z,0.00
2022-08-03T00:01:29.708Z,0.00
2022-08-03T00:02:29.666Z,0.00
2022-08-03T00:03:29.724Z,0.00
2022-08-03T00:04:34.133Z,0.00
2022-08-03T00:05:29.623Z,0.00
2022-08-03T00:06:33.781Z,0.00
2022-08-03T00:07:29.606Z,0.00
2022-08-03T00:08:29.581Z,0.00
2022-08-03T00:09:29.557Z,0.00
2022-08-03T00:10:29.557Z,0.00
2022-08-03T00:11:29.521Z,0.00
2022-08-03T00:12:29.507Z,0.00
2022-08-03T00:13:29.491Z,0.00
2022-08-03T00:14:29.481Z,0.00
2022-08-03T00:15:29.474Z,0.00
2022-08-03T00:16:29.445Z,0.00
2022-08-03T00:17:29.428Z,0.00
2022-08-03T00:18:29.415Z,0.00
2022-08-03T00:19:29.390Z,0.00
2022-08-03T00:20:29.399Z,0.00
2022-08-03T00:21:29.376Z,0.00
2022-08-03T00:22:29.346Z,0.00
2022-08-03T00:23:51.652Z,0.00
2022-08-03T00:24:29.313Z,0.00
2022-08-03T00:25:29.312Z,0.00
2022-08-03T00:26:29.288Z,0.00
2022-08-03T00:27:29.261Z,0.00
2022-08-03T00:28:29.249Z,0.00
2022-08-03T00:29:29.241Z,0.00
2022-08-03T00:30:30.825Z,0.00
2022-08-03T00:31:52.133Z,0.00
2022-08-03T00:32:29.184Z,0.00
2022-08-03T00:33:29.167Z,0.00
2022-08-03T00:34:36.408Z,0.00
2022-08-03T00:35:41.955Z,0.00
2022-08-03T00:36:29.119Z,0.00
2022-08-03T00:37:41.417Z,0.00
2022-08-03T00:38:29.083Z,0.00
2022-08-03T00:39:29.089Z,0.00
2022-08-03T00:40:29.055Z,0.00
2022-08-03T00:41:29.044Z,0.00
2022-08-03T00:42:29.024Z,0.00
2022-08-03T00:43:29.034Z,0.00
2022-08-03T00:44:28.990Z,0.00
2022-08-03T00:45:28.991Z,0.00
2022-08-03T00:46:28.957Z,0.00
2022-08-03T00:47:28.943Z,0.00
2022-08-03T00:48:33.174Z,0.00
2022-08-03T00:49:28.983Z,0.00
2022-08-03T00:50:28.892Z,0.00
2022-08-03T00:51:28.880Z,0.00
2022-08-03T00:52:28.862Z,0.00
2022-08-03T00:53:28.873Z,0.00
2022-08-03T00:54:28.857Z,0.00
2022-08-03T00:55:28.816Z,0.00
2022-08-03T00:56:28.801Z,0.00
2022-08-03T00:57:28.802Z,0.00
2022-08-03T00:58:28.770Z,0.00
2022-08-03T00:59:28.776Z,0.00
2022-08-03T01:00:28.734Z,0.00
2022-08-03T01:01:32.175Z,0.00
2022-08-03T01:02:28.700Z,0.00
2022-08-03T01:03:28.683Z,0.00
2022-08-03T01:04:28.696Z,0.00
2022-08-03T01:05:28.652Z,0.00
2022-08-03T01:06:28.652Z,0.00
2022-08-03T01:07:28.625Z,0.00
2022-08-03T01:08:28.604Z,0.00
2022-08-03T01:09:28.606Z,0.00
2022-08-03T01:10:28.591Z,0.00
2022-08-03T01:11:28.555Z,0.00
2022-08-03T01:12:28.542Z,0.00
2022-08-03T01:14:01.047Z,0.00
2022-08-03T01:14:28.507Z,0.00
2022-08-03T01:15:28.491Z,0.00
2022-08-03T01:16:36.744Z,0.00
2022-08-03T01:17:28.464Z,0.00
2022-08-03T01:18:28.445Z,0.00
2022-08-03T01:19:28.434Z,0.00
2022-08-03T01:20:28.418Z,0.00
2022-08-03T01:21:28.394Z,0.00
2022-08-03T01:22:28.403Z,0.00
2022-08-03T01:23:28.943Z,0.00
2022-08-03T01:24:28.350Z,0.00
2022-08-03T01:25:28.331Z,0.00
2022-08-03T01:26:28.316Z,0.00
2022-08-03T01:27:28.319Z,0.00
2022-08-03T01:28:28.286Z,0.00
2022-08-03T01:29:28.275Z,0.00
2022-08-03T01:30:28.257Z,0.00
2022-08-03T01:31:28.234Z,0.00
2022-08-03T01:32:58.715Z,0.00
2022-08-03T01:33:28.209Z,0.00
2022-08-03T01:34:28.189Z,0.00
2022-08-03T01:35:28.186Z,0.00
2022-08-03T01:36:28.156Z,0.00
2022-08-03T01:37:28.136Z,0.00
2022-08-03T01:38:28.140Z,0.00
2022-08-03T01:39:28.103Z,0.00
2022-08-03T01:40:28.094Z,0.00
2022-08-03T01:41:28.083Z,0.00
2022-08-03T01:42:28.061Z,0.00
2022-08-03T01:43:55.322Z,0.00
2022-08-03T01:44:30.937Z,0.00
2022-08-03T01:45:28.009Z,0.00
2022-08-03T01:46:27.987Z,0.00
2022-08-03T01:47:27.984Z,0.00
2022-08-03T01:48:27.958Z,0.00
2022-08-03T01:49:28.051Z,0.00
2022-08-03T01:50:27.941Z,0.00
2022-08-03T01:51:58.496Z,0.00
2022-08-03T01:52:27.892Z,0.00
2022-08-03T01:53:27.897Z,0.00
2022-08-03T01:54:27.878Z,0.00
2022-08-03T01:55:27.843Z,0.00
2022-08-03T01:56:27.824Z,0.00
2022-08-03T01:57:27.810Z,0.00
2022-08-03T01:58:27.796Z,0.00
2022-08-03T01:59:27.779Z,0.00
2022-08-03T02:00:27.777Z,0.00
2022-08-03T02:01:27.794Z,0.00
2022-08-03T02:02:32.599Z,0.00
2022-08-03T02:03:27.715Z,0.00
2022-08-03T02:04:27.696Z,0.00
2022-08-03T02:05:27.703Z,0.00
2022-08-03T02:07:00.195Z,0.00
2022-08-03T02:07:27.651Z,0.00
2022-08-03T02:08:27.629Z,0.00
2022-08-03T02:09:27.610Z,0.00
2022-08-03T02:10:35.319Z,0.00
2022-08-03T02:11:27.581Z,0.00
2022-08-03T02:12:27.564Z,0.00
2022-08-03T02:13:27.559Z,0.00
2022-08-03T02:14:27.530Z,0.00
2022-08-03T02:15:27.540Z,0.00
2022-08-03T02:16:27.501Z,0.00
2022-08-03T02:17:39.466Z,0.00
2022-08-03T02:18:27.463Z,0.00
2022-08-03T02:19:29.445Z,0.00
2022-08-03T02:20:27.429Z,0.00
2022-08-03T02:21:57.493Z,0.00
2022-08-03T02:22:27.420Z,0.00
2022-08-03T02:23:27.382Z,0.00
2022-08-03T02:24:27.361Z,0.00
2022-08-03T02:25:27.345Z,0.00
2022-08-03T02:26:27.332Z,0.00
2022-08-03T02:27:27.350Z,0.00
2022-08-03T02:28:27.296Z,0.00
2022-08-03T02:29:39.103Z,0.00
2022-08-03T02:30:27.268Z,0.00
2022-08-03T02:31:27.258Z,0.00
2022-08-03T02:32:27.256Z,0.00
2022-08-03T02:33:27.211Z,0.00
2022-08-03T02:34:27.201Z,0.00
2022-08-03T02:35:27.201Z,0.00
2022-08-03T02:36:27.169Z,0.00
2022-08-03T02:37:27.157Z,0.00
2022-08-03T02:38:27.127Z,0.00
2022-08-03T02:39:27.116Z,0.00
2022-08-03T02:40:27.135Z,0.00
2022-08-03T02:41:27.102Z,0.00
2022-08-03T02:42:27.071Z,0.00
2022-08-03T02:43:27.050Z,0.00
2022-08-03T02:44:27.034Z,0.00
2022-08-03T02:45:27.013Z,0.00
2022-08-03T02:46:27.002Z,0.00
2022-08-03T02:47:27.014Z,0.00
2022-08-03T02:48:26.968Z,0.00
2022-08-03T02:49:51.075Z,0.00
2022-08-03T02:50:26.955Z,0.00
2022-08-03T02:51:26.912Z,0.00
2022-08-03T02:52:26.909Z,0.00
2022-08-03T02:53:26.898Z,0.00
2022-08-03T02:54:26.890Z,0.00
2022-08-03T02:55:26.846Z,0.00
2022-08-03T02:56:26.834Z,0.00
2022-08-03T02:57:26.813Z,0.00
2022-08-03T02:58:26.811Z,0.00
2022-08-03T02:59:26.790Z,0.00
2022-08-03T03:00:27.958Z,0.00
2022-08-03T03:01:26.817Z,0.00
2022-08-03T03:02:26.740Z,0.00
2022-08-03T03:03:28.951Z,0.00
2022-08-03T03:04:30.696Z,0.00
2022-08-03T03:05:52.355Z,0.00
2022-08-03T03:06:26.665Z,0.00
2022-08-03T03:07:26.650Z,0.00
2022-08-03T03:08:28.142Z,0.00
2022-08-03T03:09:26.620Z,0.00
2022-08-03T03:10:26.622Z,0.00
2022-08-03T03:11:26.592Z,0.00
2022-08-03T03:12:26.572Z,0.00
2022-08-03T03:13:26.553Z,0.00
2022-08-03T03:14:33.506Z,0.00
2022-08-03T03:15:26.545Z,0.00
2022-08-03T03:16:26.503Z,0.00
2022-08-03T03:17:26.491Z,0.00
2022-08-03T03:18:26.470Z,0.00
2022-08-03T03:19:26.451Z,0.00
2022-08-03T03:20:30.059Z,0.00
2022-08-03T03:21:26.426Z,0.00
2022-08-03T03:22:26.405Z,0.00
2022-08-03T03:23:26.382Z,0.00
2022-08-03T03:24:26.373Z,0.00
2022-08-03T03:25:26.366Z,0.00
2022-08-03T03:26:26.358Z,0.00
2022-08-03T03:27:26.317Z,0.00
2022-08-03T03:28:26.299Z,0.00
2022-08-03T03:29:26.279Z,0.00
2022-08-03T03:30:26.265Z,0.00
2022-08-03T03:31:26.266Z,0.00
2022-08-03T03:32:26.257Z,4.00
2022-08-03T03:33:28.390Z,4.00
2022-08-03T03:34:26.195Z,0.00
2022-08-03T03:35:26.181Z,0.00
2022-08-03T03:36:26.165Z,4.00
2022-08-03T03:37:26.169Z,4.00
2022-08-03T03:38:26.131Z,4.00
2022-08-03T03:39:26.115Z,4.00
2022-08-03T03:40:26.105Z,4.00
2022-08-03T03:41:26.083Z,8.00
2022-08-03T03:42:26.082Z,8.00
2022-08-03T03:43:26.046Z,8.00
2022-08-03T03:44:26.043Z,4.00
2022-08-03T03:45:26.014Z,4.00
2022-08-03T03:46:25.998Z,8.00
2022-08-03T03:47:32.467Z,8.00
2022-08-03T03:48:25.969Z,8.00
2022-08-03T03:49:25.997Z,12.00
2022-08-03T03:50:25.930Z,16.00
2022-08-03T03:51:25.918Z,16.00
2022-08-03T03:52:25.896Z,20.00
2022-08-03T03:53:25.915Z,20.00
2022-08-03T03:54:29.111Z,20.00
2022-08-03T03:55:25.866Z,24.00
2022-08-03T03:56:25.836Z,28.00
2022-08-03T03:57:25.808Z,32.00
2022-08-03T03:58:25.805Z,36.00
2022-08-03T03:59:25.777Z,36.00
2022-08-03T04:00:25.803Z,40.00
2022-08-03T04:01:25.894Z,44.00
2022-08-03T04:02:25.728Z,44.00
2022-08-03T04:03:25.709Z,48.00
2022-08-03T04:04:25.704Z,52.00
2022-08-03T04:05:25.693Z,52.00
2022-08-03T04:06:25.682Z,60.00
2022-08-03T04:07:25.644Z,60.00
2022-08-03T04:08:25.637Z,64.00
2022-08-03T04:09:25.611Z,68.00
2022-08-03T04:10:25.591Z,76.00
2022-08-03T04:11:29.316Z,80.00
2022-08-03T04:12:25.585Z,88.00
2022-08-03T04:13:25.542Z,92.00
2022-08-03T04:14:25.524Z,100.00
2022-08-03T04:15:25.511Z,104.00
2022-08-03T04:16:25.491Z,112.00
2022-08-03T04:17:25.485Z,120.00
2022-08-03T04:18:25.481Z,136.00
2022-08-03T04:19:25.442Z,148.00
2022-08-03T04:20:25.440Z,152.00
2022-08-03T04:21:25.418Z,156.00
2022-08-03T04:22:25.397Z,172.00
2022-08-03T04:23:25.397Z,192.00
2022-08-03T04:24:26.448Z,204.00
2022-08-03T04:25:25.349Z,212.00
2022-08-03T04:26:25.325Z,228.00
2022-08-03T04:27:25.330Z,240.00
2022-08-03T04:28:30.579Z,244.00
2022-08-03T04:29:25.277Z,244.00
2022-08-03T04:30:25.258Z,248.00
2022-08-03T04:31:25.245Z,264.00
2022-08-03T04:32:25.255Z,276.00
2022-08-03T04:33:25.209Z,272.00
2022-08-03T04:34:25.193Z,252.00
2022-08-03T04:35:25.176Z,256.00
2022-08-03T04:36:25.161Z,288.00
2022-08-03T04:37:25.142Z,312.00
2022-08-03T04:38:25.162Z,312.00
2022-08-03T04:39:25.107Z,300.00
2022-08-03T04:40:25.090Z,304.00
2022-08-03T04:41:25.072Z,320.00
2022-08-03T04:42:25.118Z,312.00
2022-08-03T04:43:25.040Z,308.00
2022-08-03T04:44:28.427Z,308.00
2022-08-03T04:45:25.006Z,300.00
2022-08-03T04:46:24.996Z,300.00
2022-08-03T04:47:24.981Z,300.00
2022-08-03T04:48:24.970Z,300.00
2022-08-03T04:49:24.990Z,300.00
2022-08-03T04:50:24.943Z,304.00
2022-08-03T04:51:24.923Z,304.00
2022-08-03T04:52:24.895Z,304.00
2022-08-03T04:53:24.875Z,308.00
2022-08-03T04:54:24.866Z,308.00
2022-08-03T04:55:24.864Z,304.00
2022-08-03T04:56:24.832Z,300.00
2022-08-03T04:57:24.817Z,292.00
2022-08-03T04:58:24.799Z,300.00
2022-08-03T04:59:24.778Z,308.00
2022-08-03T05:00:24.773Z,316.00
2022-08-03T05:01:24.801Z,328.00
2022-08-03T05:02:24.730Z,328.00
2022-08-03T05:03:25.137Z,316.00
2022-08-03T05:04:24.704Z,328.00
2022-08-03T05:05:24.705Z,336.00
2022-08-03T05:06:25.025Z,348.00
2022-08-03T05:07:25.168Z,376.00
2022-08-03T05:08:28.075Z,392.00
2022-08-03T05:09:45.778Z,400.00
2022-08-03T05:10:24.600Z,400.00
2022-08-03T05:11:24.611Z,400.00
2022-08-03T05:12:26.486Z,408.00
2022-08-03T05:13:24.556Z,416.00
2022-08-03T05:14:28.102Z,408.00
2022-08-03T05:15:24.519Z,428.00
2022-08-03T05:16:24.517Z,448.00
2022-08-03T05:17:24.499Z,480.00
2022-08-03T05:18:24.474Z,488.00
2022-08-03T05:19:24.452Z,508.00
2022-08-03T05:20:24.433Z,516.00
2022-08-03T05:21:24.436Z,520.00
2022-08-03T05:22:24.407Z,524.00
2022-08-03T05:23:24.405Z,528.00
2022-08-03T05:24:24.395Z,528.00
2022-08-03T05:25:27.303Z,528.00
2022-08-03T05:26:24.347Z,520.00
2022-08-03T05:27:24.323Z,520.00
2022-08-03T05:28:24.307Z,500.00
2022-08-03T05:29:24.293Z,492.00
2022-08-03T05:30:32.309Z,488.00
2022-08-03T05:31:24.281Z,480.00
2022-08-03T05:32:24.262Z,464.00
2022-08-03T05:33:24.237Z,464.00
2022-08-03T05:34:24.209Z,456.00
2022-08-03T05:43:15.307Z,484.00
2022-08-03T05:44:14.816Z,492.00
2022-08-03T05:45:14.838Z,492.00
2022-08-03T05:46:14.775Z,508.00
2022-08-03T05:47:14.762Z,512.00
2022-08-03T05:48:14.764Z,524.00
2022-08-03T05:49:14.783Z,528.00
2022-08-03T05:50:14.714Z,524.00
2022-08-03T05:51:14.708Z,536.00
2022-08-03T05:52:14.752Z,544.00
2022-08-03T05:53:22.716Z,544.00
2022-08-03T05:54:18.219Z,544.00
2022-08-03T05:55:14.639Z,540.00
2022-08-03T05:56:16.382Z,544.00
2022-08-03T05:57:14.604Z,536.00
2022-08-03T05:58:14.588Z,540.00
2022-08-03T05:59:36.927Z,548.00
2022-08-03T06:00:14.556Z,556.00
2022-08-03T06:01:14.618Z,556.00
2022-08-03T06:02:14.759Z,544.00
2022-08-03T06:03:14.509Z,532.00
2022-08-03T06:04:14.499Z,516.00
2022-08-03T06:05:14.478Z,564.00
2022-08-03T06:06:14.475Z,556.00
2022-08-03T06:07:14.448Z,548.00
2022-08-03T06:08:15.439Z,552.00
2022-08-03T06:09:14.409Z,560.00
2022-08-03T06:10:37.278Z,556.00
2022-08-03T06:11:14.389Z,544.00
2022-08-03T06:12:14.472Z,572.00
2022-08-03T06:13:14.349Z,588.00
2022-08-03T06:14:14.336Z,592.00
2022-08-03T06:15:14.315Z,604.00
2022-08-03T06:16:14.300Z,596.00
2022-08-03T06:17:14.287Z,580.00
2022-08-03T06:18:14.285Z,536.00
2022-08-03T06:19:14.270Z,556.00
2022-08-03T06:20:14.252Z,560.00
2022-08-03T06:21:16.173Z,556.00
2022-08-03T06:22:14.379Z,548.00
2022-08-03T06:23:16.232Z,540.00
2022-08-03T06:24:14.176Z,540.00
2022-08-03T06:25:14.280Z,536.00
2022-08-03T06:26:14.149Z,524.00
2022-08-03T06:27:14.152Z,520.00
2022-08-03T06:28:35.205Z,520.00
2022-08-03T06:29:14.119Z,524.00
2022-08-03T06:30:18.088Z,528.00
2022-08-03T06:31:14.090Z,524.00
2022-08-03T06:32:14.402Z,508.00
2022-08-03T06:33:14.043Z,496.00
2022-08-03T06:34:32.155Z,532.00
2022-08-03T06:35:14.020Z,548.00
2022-08-03T06:36:13.988Z,584.00
2022-08-03T06:37:13.970Z,544.00
2022-08-03T06:38:13.959Z,532.00
2022-08-03T06:39:13.964Z,536.00
2022-08-03T06:40:14.131Z,528.00
2022-08-03T06:41:13.911Z,560.00
2022-08-03T06:42:13.989Z,580.00
2022-08-03T06:43:13.886Z,588.00
2022-08-03T06:44:13.905Z,588.00
2022-08-03T06:45:13.850Z,588.00
2022-08-03T06:46:13.832Z,588.00
2022-08-03T06:47:13.828Z,600.00
2022-08-03T06:48:13.821Z,608.00
2022-08-03T06:49:13.860Z,608.00
2022-08-03T06:50:16.185Z,616.00
2022-08-03T06:51:13.757Z,624.00
2022-08-03T06:52:13.751Z,640.00
2022-08-03T06:53:18.216Z,644.00
2022-08-03T06:54:13.725Z,644.00
2022-08-03T06:55:13.700Z,640.00
2022-08-03T06:56:13.702Z,632.00
2022-08-03T06:57:13.682Z,632.00
2022-08-03T06:58:13.649Z,636.00
2022-08-03T07:00:09.957Z,636.00
2022-08-03T07:00:13.623Z,624.00
2022-08-03T07:01:13.655Z,616.00
2022-08-03T07:02:19.116Z,608.00
2022-08-03T07:03:13.573Z,612.00
2022-08-03T07:04:13.557Z,616.00
2022-08-03T07:05:13.547Z,632.00
2022-08-03T07:06:13.535Z,644.00
2022-08-03T07:07:13.533Z,648.00
2022-08-03T07:08:13.507Z,664.00
2022-08-03T07:09:13.488Z,668.00
2022-08-03T07:10:13.470Z,688.00
2022-08-03T07:11:13.457Z,704.00
2022-08-03T07:12:13.455Z,724.00
2022-08-03T07:13:13.421Z,724.00
2022-08-03T07:14:13.408Z,740.00
2022-08-03T07:15:20.364Z,748.00
2022-08-03T07:16:13.400Z,756.00
2022-08-03T07:17:13.360Z,748.00
2022-08-03T07:18:13.362Z,700.00
2022-08-03T07:19:13.341Z,724.00
2022-08-03T07:20:13.317Z,736.00
2022-08-03T07:21:13.306Z,724.00
2022-08-03T07:22:13.311Z,708.00
2022-08-03T07:23:18.944Z,704.00
2022-08-03T07:24:13.258Z,712.00
2022-08-03T07:25:13.247Z,744.00
2022-08-03T07:26:13.228Z,772.00
2022-08-03T07:27:13.212Z,788.00
2022-08-03T07:28:13.214Z,776.00
2022-08-03T07:29:15.372Z,768.00
2022-08-03T07:30:13.187Z,772.00
2022-08-03T07:31:13.149Z,772.00
2022-08-03T07:32:13.158Z,772.00
2022-08-03T07:33:13.121Z,748.00
2022-08-03T07:34:13.140Z,704.00
2022-08-03T07:35:22.725Z,676.00
2022-08-03T07:36:13.075Z,684.00
2022-08-03T07:37:13.060Z,664.00
2022-08-03T07:38:13.126Z,660.00
2022-08-03T07:39:17.498Z,672.00
2022-08-03T07:40:13.021Z,684.00
2022-08-03T07:41:13.019Z,692.00
2022-08-03T07:42:12.994Z,676.00
2022-08-03T07:43:12.972Z,636.00
2022-08-03T07:44:12.973Z,612.00
2022-08-03T07:45:16.790Z,684.00
2022-08-03T07:46:12.934Z,680.00
2022-08-03T07:47:22.413Z,680.00
2022-08-03T07:48:12.931Z,676.00
2022-08-03T07:49:12.963Z,648.00
2022-08-03T07:50:12.872Z,684.00
2022-08-03T07:51:12.927Z,680.00
2022-08-03T07:52:12.843Z,680.00
2022-08-03T07:53:12.837Z,680.00
2022-08-03T07:54:12.834Z,676.00
2022-08-03T07:55:12.800Z,676.00
2022-08-03T07:56:12.804Z,680.00
2022-08-03T07:57:12.785Z,680.00
2022-08-03T07:58:12.821Z,680.00
2022-08-03T07:59:12.755Z,676.00
2022-08-03T08:00:12.727Z,656.00
2022-08-03T08:01:15.032Z,644.00
2022-08-03T08:02:12.696Z,652.00
2022-08-03T08:03:12.682Z,652.00
2022-08-03T08:04:12.669Z,660.00
2022-08-03T08:05:12.713Z,664.00
2022-08-03T08:06:12.656Z,664.00
2022-08-03T08:07:12.625Z,660.00
2022-08-03T08:08:12.629Z,660.00
2022-08-03T08:09:12.596Z,664.00
2022-08-03T08:10:12.589Z,668.00
2022-08-03T08:11:12.587Z,680.00
2022-08-03T08:12:15.044Z,680.00
2022-08-03T08:13:12.541Z,680.00
2022-08-03T08:14:12.528Z,672.00
2022-08-03T08:15:12.514Z,676.00
2022-08-03T08:16:12.515Z,676.00
2022-08-03T08:17:12.482Z,692.00
2022-08-03T08:18:12.487Z,708.00
2022-08-03T08:19:12.820Z,716.00
2022-08-03T08:20:12.445Z,716.00
2022-08-03T08:21:12.457Z,716.00
2022-08-03T08:22:12.431Z,704.00
2022-08-03T08:23:41.572Z,696.00
2022-08-03T08:24:15.245Z,696.00
2022-08-03T08:25:12.372Z,696.00
2022-08-03T08:26:12.362Z,700.00
2022-08-03T08:27:12.367Z,700.00
2022-08-03T08:28:29.831Z,704.00
2022-08-03T08:29:12.339Z,708.00
2022-08-03T08:30:15.978Z,712.00
2022-08-03T08:31:12.293Z,716.00
2022-08-03T08:32:12.357Z,716.00
2022-08-03T08:33:22.351Z,728.00
2022-08-03T08:34:12.254Z,736.00
2022-08-03T08:35:12.242Z,740.00
2022-08-03T08:36:15.338Z,744.00
2022-08-03T08:37:12.218Z,764.00
2022-08-03T08:38:12.199Z,760.00
2022-08-03T08:39:12.205Z,776.00
2022-08-03T08:40:12.171Z,788.00
2022-08-03T08:41:12.167Z,784.00
2022-08-03T08:42:12.190Z,792.00
2022-08-03T08:43:12.134Z,808.00
2022-08-03T08:44:12.118Z,816.00
2022-08-03T08:45:12.135Z,844.00
2022-08-03T08:46:23.259Z,872.00
2022-08-03T08:47:12.081Z,900.00
2022-08-03T08:48:12.067Z,880.00
2022-08-03T08:49:12.095Z,864.00
2022-08-03T08:50:27.322Z,860.00
2022-08-03T08:51:12.048Z,856.00
2022-08-03T08:52:25.249Z,856.00
2022-08-03T08:53:18.368Z,884.00
2022-08-03T08:54:11.986Z,876.00
2022-08-03T08:55:11.971Z,884.00
2022-08-03T08:56:12.078Z,912.00
2022-08-03T08:57:26.877Z,916.00
2022-08-03T08:58:11.939Z,960.00
2022-08-03T08:59:11.930Z,956.00
2022-08-03T09:00:11.911Z,980.00
2022-08-03T09:01:11.925Z,976.00
2022-08-03T09:02:11.952Z,996.00
2022-08-03T09:03:11.873Z,1024.00
2022-08-03T09:04:11.889Z,1040.00
2022-08-03T09:05:11.855Z,1036.00
2022-08-03T09:06:11.833Z,1108.00
2022-08-03T09:07:20.158Z,1100.00
2022-08-03T09:08:11.823Z,1160.00
2022-08-03T09:09:11.796Z,1152.00
2022-08-03T09:10:13.666Z,1148.00
2022-08-03T09:11:12.152Z,1268.00
2022-08-03T09:12:37.473Z,1288.00
2022-08-03T09:13:11.777Z,1324.00
2022-08-03T09:14:39.198Z,1292.00
2022-08-03T09:15:16.972Z,1292.00
2022-08-03T09:16:11.704Z,1404.00
2022-08-03T09:17:17.221Z,1408.00
2022-08-03T09:18:11.703Z,1452.00
2022-08-03T09:19:11.675Z,1524.00
2022-08-03T09:20:11.657Z,1568.00
2022-08-03T09:21:30.009Z,1584.00
2022-08-03T09:22:11.659Z,1620.00
2022-08-03T09:23:51.592Z,1684.00
2022-08-03T09:24:25.723Z,2204.00
2022-08-03T09:25:26.368Z,10852.00
2022-08-03T09:26:11.586Z,9076.00
2022-08-03T09:27:11.623Z,13992.00
2022-08-03T09:28:11.589Z,10300.00
2022-08-03T09:29:14.959Z,4384.00
2022-08-03T09:30:33.390Z,3204.00
2022-08-03T09:31:11.545Z,7060.00
2022-08-03T09:32:11.523Z,8228.00
2022-08-03T09:33:12.300Z,5708.00
2022-08-03T09:34:11.516Z,5316.00
2022-08-03T09:35:11.492Z,5208.00
2022-08-03T09:36:11.531Z,7996.00
2022-08-03T09:37:11.473Z,11396.00
2022-08-03T09:38:13.528Z,23872.00
2022-08-03T09:39:11.443Z,24608.00
2022-08-03T09:40:11.441Z,24288.00
2022-08-03T09:41:11.416Z,24320.00
2022-08-03T09:42:11.416Z,24256.00
2022-08-03T09:43:11.398Z,23968.00
2022-08-03T09:44:24.536Z,22272.00
2022-08-03T09:45:11.390Z,21184.00
2022-08-03T09:46:11.366Z,21632.00
2022-08-03T09:47:11.358Z,19872.00
2022-08-03T09:48:11.344Z,17984.00
2022-08-03T09:49:11.722Z,14944.00
2022-08-03T09:50:11.367Z,12084.00
2022-08-03T09:51:13.574Z,9868.00
2022-08-03T09:52:38.495Z,11012.00
2022-08-03T09:53:11.296Z,9304.00
2022-08-03T09:54:18.858Z,9380.00
2022-08-03T09:56:04.996Z,7560.00
2022-08-03T09:56:35.988Z,7692.00
2022-08-03T09:57:11.286Z,7680.00
2022-08-03T09:58:11.260Z,8692.00
2022-08-03T09:59:11.246Z,9796.00
2022-08-03T10:00:11.245Z,9060.00
2022-08-03T10:01:23.880Z,7700.00
2022-08-03T10:02:11.231Z,8140.00
2022-08-03T10:03:11.236Z,8476.00
2022-08-03T10:04:11.231Z,8780.00
2022-08-03T10:05:11.208Z,9800.00
2022-08-03T10:06:11.221Z,11804.00
2022-08-03T10:07:11.196Z,13844.00
2022-08-03T10:08:11.192Z,19456.00
2022-08-03T10:09:11.180Z,20064.00
2022-08-03T10:10:31.080Z,20000.00
2022-08-03T10:11:11.192Z,20640.00
2022-08-03T10:12:11.186Z,20992.00
2022-08-03T10:13:11.162Z,21280.00
2022-08-03T10:14:11.153Z,21344.00
2022-08-03T10:16:23.179Z,21216.00
2022-08-03T10:16:23.955Z,19808.00
2022-08-03T10:17:11.141Z,20160.00
2022-08-03T10:18:11.145Z,20512.00
2022-08-03T10:19:11.134Z,19392.00
2022-08-03T10:20:11.258Z,17792.00
2022-08-03T10:21:11.119Z,16896.00
2022-08-03T10:22:11.135Z,15552.00
2022-08-03T10:23:11.103Z,19072.00
2022-08-03T10:24:11.113Z,14080.00
2022-08-03T10:25:11.198Z,14784.00
2022-08-03T10:26:11.135Z,18752.00
2022-08-03T10:27:11.141Z,22176.00
2022-08-03T10:28:11.128Z,21664.00
2022-08-03T10:29:12.900Z,19072.00
2022-08-03T10:30:11.083Z,13244.00
2022-08-03T10:31:11.061Z,13408.00
2022-08-03T10:32:11.047Z,14464.00
2022-08-03T10:33:50.099Z,13404.00
2022-08-03T10:34:11.063Z,10216.00
2022-08-03T10:35:18.988Z,8344.00
2022-08-03T10:36:11.026Z,7160.00
2022-08-03T10:37:11.023Z,6412.00
2022-08-03T10:38:11.016Z,6568.00
2022-08-03T10:39:15.975Z,6356.00
2022-08-03T10:40:16.173Z,6300.00
2022-08-03T10:41:11.002Z,7688.00
2022-08-03T10:42:14.585Z,9208.00
2022-08-03T10:43:10.989Z,15776.00
2022-08-03T10:44:10.983Z,15488.00
2022-08-03T10:45:10.995Z,12976.00
2022-08-03T10:46:10.994Z,14432.00
2022-08-03T10:47:10.985Z,11100.00
2022-08-03T10:48:10.963Z,6624.00
2022-08-03T10:49:11.044Z,6840.00
2022-08-03T10:50:10.981Z,7460.00
2022-08-03T10:51:10.961Z,8860.00
2022-08-03T10:52:31.993Z,9164.00
2022-08-03T10:53:10.933Z,10756.00
2022-08-03T10:54:10.928Z,12072.00
2022-08-03T10:55:11.123Z,12652.00
2022-08-03T10:56:10.918Z,15104.00
2022-08-03T10:57:14.360Z,17216.00
2022-08-03T10:58:11.392Z,20544.00
2022-08-03T10:59:10.895Z,21984.00
2022-08-03T11:00:10.895Z,23264.00
2022-08-03T11:01:10.917Z,15296.00
2022-08-03T11:02:10.909Z,7340.00
2022-08-03T11:03:10.876Z,6444.00
2022-08-03T11:04:15.243Z,6800.00
2022-08-03T11:05:10.903Z,7212.00
2022-08-03T11:06:10.861Z,16416.00
2022-08-03T11:07:10.876Z,27296.00
2022-08-03T11:08:10.852Z,29184.00
2022-08-03T11:09:10.847Z,28128.00
2022-08-03T11:10:10.981Z,22752.00
2022-08-03T11:11:10.848Z,13616.00
2022-08-03T11:12:10.830Z,17920.00
2022-08-03T11:13:10.842Z,18144.00
2022-08-03T11:14:10.815Z,11384.00
2022-08-03T11:15:10.859Z,10544.00
2022-08-03T11:16:16.119Z,6756.00
2022-08-03T11:17:15.160Z,6928.00
2022-08-03T11:18:11.239Z,6636.00
2022-08-03T11:19:10.845Z,6612.00
2022-08-03T11:20:10.804Z,7140.00
2022-08-03T11:21:10.795Z,13816.00
2022-08-03T11:22:10.776Z,27520.00
2022-08-03T11:23:10.791Z,32128.00
2022-08-03T11:24:10.775Z,32256.00
2022-08-03T11:25:53.941Z,32864.00
2022-08-03T11:26:10.759Z,33536.00
2022-08-03T11:27:10.751Z,35008.00
2022-08-03T11:28:10.761Z,35872.00
2022-08-03T11:29:10.763Z,35648.00
2022-08-03T11:30:10.749Z,35136.00
2022-08-03T11:31:22.373Z,24832.00
2022-08-03T11:32:10.721Z,26624.00
2022-08-03T11:33:10.717Z,32832.00
2022-08-03T11:34:10.741Z,30016.00
2022-08-03T11:35:10.708Z,21984.00
2022-08-03T11:36:10.698Z,23168.00
2022-08-03T11:37:10.710Z,32000.00
2022-08-03T11:38:10.688Z,27488.00
2022-08-03T11:39:10.690Z,24960.00
2022-08-03T11:40:10.698Z,17664.00
2022-08-03T11:41:10.676Z,23008.00
2022-08-03T11:42:10.675Z,13424.00
2022-08-03T11:43:10.684Z,8880.00
2022-08-03T11:44:10.658Z,7996.00
2022-08-03T11:45:10.667Z,7804.00
2022-08-03T11:46:10.671Z,8036.00
2022-08-03T11:47:10.653Z,8128.00
2022-08-03T11:48:10.643Z,8648.00
2022-08-03T11:49:11.352Z,9352.00
2022-08-03T11:50:10.637Z,10544.00
2022-08-03T11:51:10.654Z,25664.00
2022-08-03T11:52:10.628Z,24832.00
2022-08-03T11:53:10.639Z,25760.00
2022-08-03T11:54:10.610Z,24000.00
2022-08-03T11:55:10.611Z,22208.00
2022-08-03T11:56:13.042Z,17568.00
2022-08-03T11:57:10.614Z,22272.00
2022-08-03T11:59:01.553Z,26464.00
2022-08-03T11:59:20.738Z,24800.00
2022-08-03T12:00:10.590Z,18944.00
2022-08-03T12:01:10.606Z,26208.00
2022-08-03T12:02:10.694Z,30400.00
2022-08-03T12:03:10.677Z,27872.00
2022-08-03T12:04:10.579Z,37440.00
2022-08-03T12:05:10.583Z,33152.00
2022-08-03T12:06:10.566Z,42912.00
2022-08-03T12:07:10.613Z,44192.00
2022-08-03T12:08:10.573Z,42816.00
2022-08-03T12:09:10.571Z,42624.00
2022-08-03T12:10:10.550Z,52448.00
2022-08-03T12:11:10.559Z,50272.00
2022-08-03T12:12:10.540Z,54400.00
2022-08-03T12:14:28.878Z,40704.00
2022-08-03T12:14:49.088Z,27264.00
2022-08-03T12:15:10.549Z,48416.00
2022-08-03T12:16:10.525Z,56736.00
2022-08-03T12:17:10.521Z,59712.00
2022-08-03T12:18:11.090Z,56640.00
2022-08-03T12:19:10.511Z,54464.00
2022-08-03T12:20:10.549Z,48320.00
2022-08-03T12:21:10.513Z,47296.00
2022-08-03T12:22:10.521Z,54336.00
2022-08-03T12:23:10.516Z,56064.00
2022-08-03T12:24:10.582Z,45600.00
2022-08-03T12:25:10.495Z,25536.00
2022-08-03T12:26:10.491Z,15456.00
2022-08-03T12:27:10.485Z,13412.00
2022-08-03T12:28:36.294Z,10612.00
2022-08-03T12:29:10.502Z,12816.00
2022-08-03T12:30:10.477Z,18656.00
2022-08-03T12:31:10.467Z,18752.00
2022-08-03T12:32:10.473Z,14232.00
2022-08-03T12:33:10.495Z,15200.00
2022-08-03T12:34:10.496Z,14848.00
2022-08-03T12:35:10.454Z,13692.00
2022-08-03T12:36:10.457Z,13148.00
2022-08-03T12:37:21.847Z,14848.00
2022-08-03T12:38:10.444Z,9988.00
2022-08-03T12:39:10.438Z,36064.00
2022-08-03T12:40:11.156Z,50592.00